createdAt,value
2023-02-28T00:00:59.911Z,99.99
2023-02-28T00:02:00.278Z,99.99
2023-02-28T00:03:00.060Z,99.99
2023-02-28T00:04:02.669Z,99.99
2023-02-28T00:04:59.928Z,99.99
2023-02-28T00:05:59.887Z,99.99
2023-02-28T00:06:59.882Z,99.99
2023-02-28T00:07:59.898Z,99.99
2023-02-28T00:08:59.925Z,99.99
2023-02-28T00:09:59.893Z,99.99
2023-02-28T00:10:59.905Z,99.99
2023-02-28T00:11:59.912Z,99.99
2023-02-28T00:12:59.907Z,99.99
2023-02-28T00:13:59.995Z,99.99
2023-02-28T00:14:59.925Z,99.99
2023-02-28T00:15:59.911Z,99.99
2023-02-28T00:17:01.016Z,99.99
2023-02-28T00:17:59.945Z,99.99
2023-02-28T00:18:59.971Z,99.99
2023-02-28T00:19:59.906Z,99.99
2023-02-28T00:21:00.007Z,99.99
2023-02-28T00:21:59.918Z,99.99
2023-02-28T00:22:59.933Z,99.99
2023-02-28T00:23:59.949Z,99.99
2023-02-28T00:24:59.935Z,99.99
2023-02-28T00:25:59.929Z,99.99
2023-02-28T00:26:59.930Z,99.99
2023-02-28T00:27:59.945Z,99.99
2023-02-28T00:28:59.940Z,99.99
2023-02-28T00:29:59.948Z,99.99
2023-02-28T00:31:02.887Z,99.99
2023-02-28T00:32:00.104Z,99.99
2023-02-28T00:33:03.111Z,99.99
2023-02-28T00:33:59.957Z,99.99
2023-02-28T00:34:59.949Z,99.99
2023-02-28T00:36:00.078Z,99.99
2023-02-28T00:36:59.974Z,99.99
2023-02-28T00:37:59.949Z,99.99
2023-02-28T00:38:59.969Z,99.99
2023-02-28T00:40:00.014Z,99.99
2023-02-28T00:40:59.944Z,99.99
2023-02-28T00:41:59.776Z,99.99
2023-02-28T00:42:59.946Z,99.99
2023-02-28T00:43:59.987Z,99.99
2023-02-28T00:44:59.949Z,99.99
2023-02-28T00:46:00.184Z,99.99
2023-02-28T00:47:02.979Z,99.99
2023-02-28T00:48:00.069Z,99.99
2023-02-28T00:48:59.973Z,99.99
2023-02-28T00:49:59.961Z,99.99
2023-02-28T00:50:59.962Z,99.99
2023-02-28T00:51:59.971Z,99.99
2023-02-28T00:53:00.003Z,99.99
2023-02-28T00:53:59.977Z,99.99
2023-02-28T00:54:59.988Z,99.99
2023-02-28T00:55:59.955Z,99.99
2023-02-28T00:56:59.978Z,99.99
2023-02-28T00:57:59.982Z,99.99
2023-02-28T00:58:59.990Z,99.99
2023-02-28T00:59:59.980Z,99.99
2023-02-28T01:00:59.984Z,99.99
2023-02-28T01:01:59.974Z,99.99
2023-02-28T01:03:03.095Z,99.99
2023-02-28T01:04:00.013Z,99.99
2023-02-28T01:04:59.986Z,99.99
2023-02-28T01:05:59.978Z,99.99
2023-02-28T01:06:59.972Z,99.99
2023-02-28T01:08:00.040Z,99.99
2023-02-28T01:09:00.058Z,99.99
2023-02-28T01:09:59.990Z,99.99
2023-02-28T01:10:59.997Z,99.99
2023-02-28T01:12:00.011Z,99.99
2023-02-28T01:12:59.988Z,99.99
2023-02-28T01:14:01.193Z,99.99
2023-02-28T01:14:59.994Z,99.99
2023-02-28T01:16:00.230Z,99.99
2023-02-28T01:17:00.018Z,99.99
2023-02-28T01:18:00.001Z,99.99
2023-02-28T01:19:00.138Z,99.99
2023-02-28T01:20:00.010Z,99.99
2023-02-28T01:21:00.002Z,99.99
2023-02-28T01:21:59.996Z,99.99
2023-02-28T01:23:00.017Z,99.99
2023-02-28T01:24:00.041Z,99.99
2023-02-28T01:25:03.086Z,99.99
2023-02-28T01:26:00.038Z,99.99
2023-02-28T01:27:00.029Z,99.99
2023-02-28T01:28:00.018Z,99.99
2023-02-28T01:29:00.106Z,99.99
2023-02-28T01:30:00.057Z,99.99
2023-02-28T01:31:00.143Z,99.99
2023-02-28T01:32:00.173Z,99.99
2023-02-28T01:33:00.023Z,99.99
2023-02-28T01:34:00.092Z,99.99
2023-02-28T01:35:00.062Z,99.99
2023-02-28T01:36:03.349Z,99.99
2023-02-28T01:37:00.039Z,99.99
2023-02-28T01:38:21.102Z,99.99
2023-02-28T01:39:00.049Z,99.99
2023-02-28T01:40:00.048Z,99.99
2023-02-28T01:41:00.091Z,99.99
2023-02-28T01:42:00.050Z,99.99
2023-02-28T01:43:00.143Z,99.99
2023-02-28T01:44:00.101Z,99.99
2023-02-28T01:45:00.096Z,99.99
2023-02-28T01:46:00.217Z,99.99
2023-02-28T01:47:00.223Z,99.99
2023-02-28T01:48:00.047Z,99.99
2023-02-28T01:49:00.164Z,99.99
2023-02-28T01:50:00.112Z,99.99
2023-02-28T01:51:00.102Z,99.99
2023-02-28T01:52:00.043Z,99.99
2023-02-28T01:53:00.086Z,99.99
2023-02-28T01:54:00.096Z,99.99
2023-02-28T01:55:00.073Z,99.99
2023-02-28T01:56:00.045Z,99.99
2023-02-28T01:57:00.099Z,99.99
2023-02-28T01:58:02.831Z,99.99
2023-02-28T01:59:00.097Z,99.99
2023-02-28T02:00:00.168Z,99.99
2023-02-28T02:01:00.077Z,99.99
2023-02-28T02:02:00.228Z,99.99
2023-02-28T02:03:00.238Z,99.99
2023-02-28T02:04:00.108Z,99.99
2023-02-28T02:05:00.105Z,99.99
2023-02-28T02:06:00.133Z,99.99
2023-02-28T02:07:00.113Z,99.99
2023-02-28T02:08:00.074Z,99.99
2023-02-28T02:09:01.900Z,99.99
2023-02-28T02:10:00.118Z,99.99
2023-02-28T02:11:00.088Z,99.99
2023-02-28T02:12:00.110Z,99.99
2023-02-28T02:13:00.119Z,99.99
2023-02-28T02:14:00.104Z,99.99
2023-02-28T02:15:00.180Z,99.99
2023-02-28T02:16:00.168Z,99.99
2023-02-28T02:17:00.094Z,99.99
2023-02-28T02:18:00.130Z,99.99
2023-02-28T02:19:00.261Z,99.99
2023-02-28T02:20:03.260Z,99.99
2023-02-28T02:21:00.128Z,99.99
2023-02-28T02:22:00.111Z,99.99
2023-02-28T02:23:00.156Z,99.99
2023-02-28T02:24:00.106Z,99.99
2023-02-28T02:25:00.126Z,99.99
2023-02-28T02:26:00.108Z,99.99
2023-02-28T02:27:03.177Z,99.99
2023-02-28T02:28:00.138Z,99.99
2023-02-28T02:29:00.131Z,99.99
2023-02-28T02:30:00.151Z,99.99
2023-02-28T02:31:02.962Z,99.99
2023-02-28T02:32:00.208Z,99.99
2023-02-28T02:33:00.107Z,99.99
2023-02-28T02:34:00.126Z,99.99
2023-02-28T02:35:00.129Z,99.99
2023-02-28T02:36:00.277Z,99.99
2023-02-28T02:37:00.133Z,99.99
2023-02-28T02:38:00.214Z,99.99
2023-02-28T02:39:00.134Z,99.99
2023-02-28T02:40:00.165Z,99.99
2023-02-28T02:41:00.142Z,99.99
2023-02-28T02:42:03.324Z,99.99
2023-02-28T02:43:00.115Z,99.99
2023-02-28T02:44:00.120Z,99.99
2023-02-28T02:45:00.154Z,99.99
2023-02-28T02:46:00.140Z,99.99
2023-02-28T02:47:00.217Z,99.99
2023-02-28T02:48:00.125Z,99.99
2023-02-28T02:49:00.163Z,99.99
2023-02-28T02:50:00.144Z,99.99
2023-02-28T02:51:00.183Z,99.99
2023-02-28T02:52:00.139Z,99.99
2023-02-28T02:53:00.163Z,99.99
2023-02-28T02:54:00.146Z,99.99
2023-02-28T02:55:00.184Z,99.99
2023-02-28T02:56:00.156Z,99.99
2023-02-28T02:57:00.155Z,99.99
2023-02-28T02:58:03.269Z,99.99
2023-02-28T02:59:00.171Z,99.99
2023-02-28T03:00:00.175Z,99.99
2023-02-28T03:01:00.336Z,99.99
2023-02-28T03:02:00.150Z,99.99
2023-02-28T03:03:00.173Z,99.99
2023-02-28T03:04:03.368Z,99.99
2023-02-28T03:05:00.235Z,99.99
2023-02-28T03:06:00.181Z,99.99
2023-02-28T03:07:00.151Z,99.99
2023-02-28T03:08:00.176Z,99.99
2023-02-28T03:09:00.167Z,99.99
2023-02-28T03:10:00.212Z,99.99
2023-02-28T03:11:00.198Z,99.99
2023-02-28T03:12:02.904Z,99.99
2023-02-28T03:13:00.177Z,99.99
2023-02-28T03:14:00.176Z,99.99
2023-02-28T03:15:00.203Z,99.99
2023-02-28T03:16:00.369Z,99.99
2023-02-28T03:17:00.207Z,99.99
2023-02-28T03:18:00.181Z,99.99
2023-02-28T03:19:00.207Z,99.99
2023-02-28T03:20:00.260Z,99.99
2023-02-28T03:21:00.203Z,99.99
2023-02-28T03:22:00.181Z,99.99
2023-02-28T03:23:00.228Z,99.99
2023-02-28T03:24:00.207Z,99.99
2023-02-28T03:25:00.235Z,99.99
2023-02-28T03:26:00.210Z,99.99
2023-02-28T03:27:00.234Z,99.99
2023-02-28T03:28:01.219Z,99.99
2023-02-28T03:29:00.221Z,99.99
2023-02-28T03:30:00.448Z,99.99
2023-02-28T03:31:00.204Z,99.99
2023-02-28T03:32:00.520Z,99.99
2023-02-28T03:33:00.240Z,99.99
2023-02-28T03:34:00.215Z,99.99
2023-02-28T03:35:00.240Z,99.99
2023-02-28T03:36:00.503Z,99.99
2023-02-28T03:37:00.355Z,99.99
2023-02-28T03:38:00.219Z,99.99
2023-02-28T03:39:00.232Z,99.99
2023-02-28T03:40:00.244Z,99.99
2023-02-28T03:41:03.369Z,99.99
2023-02-28T03:42:00.235Z,99.99
2023-02-28T03:43:00.269Z,99.99
2023-02-28T03:44:00.225Z,99.99
2023-02-28T03:45:00.278Z,99.99
2023-02-28T03:46:00.285Z,99.99
2023-02-28T03:47:00.244Z,99.99
2023-02-28T03:48:00.245Z,99.99
2023-02-28T03:49:00.290Z,99.99
2023-02-28T03:50:00.269Z,99.99
2023-02-28T03:51:00.241Z,99.99
2023-02-28T03:52:03.347Z,99.99
2023-02-28T03:53:00.257Z,99.99
2023-02-28T03:54:00.238Z,99.99
2023-02-28T03:55:00.278Z,99.99
2023-02-28T03:56:00.269Z,99.99
2023-02-28T03:57:00.250Z,99.99
2023-02-28T03:58:00.257Z,99.99
2023-02-28T03:59:00.267Z,99.99
2023-02-28T04:00:00.283Z,99.99
2023-02-28T04:01:00.270Z,99.99
2023-02-28T04:02:00.367Z,99.99
2023-02-28T04:03:03.013Z,99.99
2023-02-28T04:04:00.298Z,99.99
2023-02-28T04:05:00.307Z,99.99
2023-02-28T04:06:00.287Z,99.99
2023-02-28T04:07:00.264Z,99.99
2023-02-28T04:08:00.249Z,99.99
2023-02-28T04:09:00.263Z,99.99
2023-02-28T04:10:00.313Z,99.99
2023-02-28T04:11:00.268Z,99.99
2023-02-28T04:12:00.266Z,99.99
2023-02-28T04:13:00.288Z,99.99
2023-02-28T04:14:03.031Z,99.99
2023-02-28T04:15:00.341Z,99.99
2023-02-28T04:16:00.437Z,99.99
2023-02-28T04:17:00.300Z,99.99
2023-02-28T04:18:00.283Z,99.99
2023-02-28T04:19:00.287Z,99.99
2023-02-28T04:20:00.335Z,99.99
2023-02-28T04:21:00.318Z,99.99
2023-02-28T04:22:00.305Z,99.99
2023-02-28T04:23:00.279Z,99.99
2023-02-28T04:24:00.293Z,99.99
2023-02-28T04:25:00.994Z,99.99
2023-02-28T04:26:00.297Z,99.99
2023-02-28T04:27:00.383Z,99.99
2023-02-28T04:28:00.330Z,99.99
2023-02-28T04:29:00.300Z,99.99
2023-02-28T04:30:00.324Z,99.99
2023-02-28T04:31:00.329Z,99.99
2023-02-28T04:32:00.654Z,99.99
2023-02-28T04:33:00.362Z,99.99
2023-02-28T04:34:00.322Z,99.99
2023-02-28T04:35:00.315Z,99.99
2023-02-28T04:36:03.480Z,99.99
2023-02-28T04:37:15.200Z,99.99
2023-02-28T04:38:00.346Z,99.99
2023-02-28T04:39:00.309Z,99.99
2023-02-28T04:40:00.339Z,99.99
2023-02-28T04:41:00.361Z,99.99
2023-02-28T04:42:00.316Z,99.99
2023-02-28T04:43:00.319Z,99.99
2023-02-28T04:44:00.338Z,99.99
2023-02-28T04:45:00.327Z,99.99
2023-02-28T04:46:00.385Z,99.99
2023-02-28T04:47:03.116Z,99.99
2023-02-28T04:48:00.324Z,99.99
2023-02-28T04:49:00.347Z,99.99
2023-02-28T04:50:00.345Z,99.99
2023-02-28T04:51:00.319Z,99.99
2023-02-28T04:52:00.365Z,99.99
2023-02-28T04:53:00.335Z,99.99
2023-02-28T04:54:00.368Z,99.99
2023-02-28T04:55:00.328Z,99.99
2023-02-28T04:56:00.327Z,99.99
2023-02-28T04:57:00.436Z,99.99
2023-02-28T04:58:03.423Z,99.99
2023-02-28T04:59:00.339Z,99.99
2023-02-28T05:00:00.360Z,99.99
2023-02-28T05:01:00.335Z,99.99
2023-02-28T05:02:00.504Z,99.99
2023-02-28T05:03:00.373Z,99.99
2023-02-28T05:04:00.351Z,99.99
2023-02-28T05:05:00.465Z,99.99
2023-02-28T05:06:00.375Z,99.99
2023-02-28T05:07:00.359Z,99.99
2023-02-28T05:08:00.393Z,99.99
2023-02-28T05:09:03.162Z,99.99
2023-02-28T05:10:00.360Z,99.99
2023-02-28T05:11:00.366Z,99.99
2023-02-28T05:12:00.363Z,99.99
2023-02-28T05:13:00.354Z,99.99
2023-02-28T05:14:00.448Z,99.99
2023-02-28T05:15:00.360Z,99.99
2023-02-28T05:16:00.454Z,99.99
2023-02-28T05:17:00.415Z,99.99
2023-02-28T05:18:00.377Z,99.99
2023-02-28T05:19:00.572Z,99.99
2023-02-28T05:20:16.415Z,99.99
2023-02-28T05:21:00.377Z,99.99
2023-02-28T05:22:00.384Z,99.99
2023-02-28T05:23:00.373Z,99.99
2023-02-28T05:24:00.413Z,99.99
2023-02-28T05:25:03.155Z,99.99
2023-02-28T05:26:00.422Z,99.99
2023-02-28T05:27:00.397Z,99.99
2023-02-28T05:28:00.397Z,99.99
2023-02-28T05:29:00.397Z,99.99
2023-02-28T05:30:00.406Z,99.99
2023-02-28T05:31:00.407Z,99.99
2023-02-28T05:32:00.639Z,99.99
2023-02-28T05:33:00.393Z,99.99
2023-02-28T05:34:00.426Z,99.99
2023-02-28T05:35:00.408Z,99.99
2023-02-28T05:36:00.535Z,99.99
2023-02-28T05:37:00.387Z,99.99
2023-02-28T05:38:00.648Z,99.99
2023-02-28T05:39:00.400Z,99.99
2023-02-28T05:40:00.426Z,99.99
2023-02-28T05:41:00.431Z,99.99
2023-02-28T05:42:00.398Z,99.99
2023-02-28T05:43:00.456Z,99.99
2023-02-28T05:44:00.445Z,99.99
2023-02-28T05:45:00.446Z,99.99
2023-02-28T05:46:00.542Z,99.99
2023-02-28T05:47:00.419Z,99.99
2023-02-28T05:48:00.414Z,99.99
2023-02-28T05:49:00.735Z,99.99
2023-02-28T05:50:00.410Z,99.99
2023-02-28T05:51:00.479Z,99.99
2023-02-28T05:52:06.255Z,99.99
2023-02-28T05:53:00.449Z,99.99
2023-02-28T05:54:00.433Z,99.99
2023-02-28T05:55:00.456Z,99.99
2023-02-28T05:56:00.511Z,99.99
2023-02-28T05:57:00.618Z,99.99
2023-02-28T05:58:00.458Z,99.99
2023-02-28T05:59:00.458Z,99.99
2023-02-28T06:00:00.450Z,99.99
2023-02-28T06:01:00.507Z,99.99
2023-02-28T06:02:00.533Z,99.99
2023-02-28T06:03:00.522Z,99.99
2023-02-28T06:04:00.620Z,99.99
2023-02-28T06:05:00.477Z,99.99
2023-02-28T06:06:00.468Z,99.99
2023-02-28T06:07:00.500Z,99.99
2023-02-28T06:08:03.203Z,99.99
2023-02-28T06:09:00.461Z,99.99
2023-02-28T06:10:02.936Z,99.99
2023-02-28T06:11:00.466Z,99.99
2023-02-28T06:12:00.522Z,99.99
2023-02-28T06:13:00.460Z,99.99
2023-02-28T06:14:00.477Z,99.99
2023-02-28T06:15:00.456Z,99.99
2023-02-28T06:16:00.480Z,99.99
2023-02-28T06:17:01.649Z,99.99
2023-02-28T06:18:00.470Z,99.99
2023-02-28T06:19:03.465Z,99.99
2023-02-28T06:20:00.507Z,99.99
2023-02-28T06:21:00.566Z,99.99
2023-02-28T06:22:00.549Z,99.99
2023-02-28T06:23:00.503Z,99.99
2023-02-28T06:24:00.486Z,99.99
2023-02-28T06:25:00.476Z,99.99
2023-02-28T06:26:00.535Z,99.99
2023-02-28T06:27:00.473Z,99.99
2023-02-28T06:28:00.510Z,99.99
2023-02-28T06:29:00.476Z,99.99
2023-02-28T06:30:03.631Z,99.99
2023-02-28T06:31:00.643Z,99.99
2023-02-28T06:32:00.575Z,99.99
2023-02-28T06:33:00.531Z,99.99
2023-02-28T06:34:00.540Z,99.99
2023-02-28T06:35:00.507Z,99.99
2023-02-28T06:36:00.649Z,99.99
2023-02-28T06:37:00.507Z,99.99
2023-02-28T06:38:00.495Z,99.99
2023-02-28T06:39:00.544Z,99.99
2023-02-28T06:40:00.507Z,99.99
2023-02-28T06:41:00.712Z,99.99
2023-02-28T06:42:00.809Z,99.99
2023-02-28T06:43:00.517Z,99.99
2023-02-28T06:44:00.552Z,99.99
2023-02-28T06:45:00.523Z,99.99
2023-02-28T06:46:00.620Z,99.99
2023-02-28T06:47:00.517Z,99.99
2023-02-28T06:48:00.503Z,99.99
2023-02-28T06:49:00.514Z,99.99
2023-02-28T06:50:00.554Z,99.99
2023-02-28T06:51:00.536Z,99.99
2023-02-28T06:52:06.500Z,99.99
2023-02-28T06:53:00.509Z,99.99
2023-02-28T06:54:00.547Z,99.99
2023-02-28T06:55:00.599Z,99.99
2023-02-28T06:56:00.539Z,99.99
2023-02-28T06:57:00.544Z,99.99
2023-02-28T06:58:00.525Z,99.99
2023-02-28T06:59:00.548Z,99.99
2023-02-28T07:00:00.737Z,99.99
2023-02-28T07:01:00.610Z,99.99
2023-02-28T07:02:00.721Z,99.99
2023-02-28T07:03:03.619Z,99.99
2023-02-28T07:04:00.542Z,99.99
2023-02-28T07:05:00.665Z,99.99
2023-02-28T07:06:00.568Z,99.99
2023-02-28T07:07:00.549Z,99.99
2023-02-28T07:08:00.559Z,99.99
2023-02-28T07:09:00.531Z,99.99
2023-02-28T07:10:00.559Z,99.99
2023-02-28T07:11:00.624Z,99.99
2023-02-28T07:12:00.553Z,99.99
2023-02-28T07:13:00.566Z,99.99
2023-02-28T07:14:03.622Z,99.99
2023-02-28T07:15:00.604Z,99.99
2023-02-28T07:16:00.715Z,99.99
2023-02-28T07:17:00.579Z,99.99
2023-02-28T07:18:00.569Z,99.99
2023-02-28T07:19:00.562Z,99.99
2023-02-28T07:20:00.554Z,99.99
2023-02-28T07:21:00.605Z,99.99
2023-02-28T07:22:00.568Z,99.99
2023-02-28T07:23:00.581Z,99.99
2023-02-28T07:24:00.585Z,99.99
2023-02-28T07:25:03.499Z,99.99
2023-02-28T07:26:00.720Z,99.99
2023-02-28T07:27:04.804Z,99.99
2023-02-28T07:28:00.755Z,99.99
2023-02-28T07:29:00.636Z,99.99
2023-02-28T07:30:00.587Z,99.99
2023-02-28T07:31:00.678Z,99.99
2023-02-28T07:32:00.722Z,99.99
2023-02-28T07:33:00.592Z,99.99
2023-02-28T07:34:00.732Z,99.99
2023-02-28T07:35:00.769Z,99.99
2023-02-28T07:36:00.706Z,99.99
2023-02-28T07:37:00.583Z,99.99
2023-02-28T07:38:00.618Z,99.99
2023-02-28T07:39:00.620Z,99.99
2023-02-28T07:40:00.766Z,99.99
2023-02-28T07:41:02.602Z,99.99
2023-02-28T07:42:00.789Z,99.99
2023-02-28T07:43:00.625Z,99.99
2023-02-28T07:44:00.708Z,99.99
2023-02-28T07:45:00.616Z,99.99
2023-02-28T07:46:00.620Z,99.99
2023-02-28T07:47:00.697Z,99.99
2023-02-28T07:48:00.634Z,99.99
2023-02-28T07:49:00.671Z,99.99
2023-02-28T07:50:00.644Z,99.99
2023-02-28T07:51:00.627Z,99.91
2023-02-28T07:52:00.680Z,99.63
2023-02-28T07:53:00.807Z,99.91
2023-02-28T07:54:00.726Z,99.44
2023-02-28T07:55:00.639Z,99.72
2023-02-28T07:56:00.756Z,99.82
2023-02-28T07:57:00.624Z,99.39
2023-02-28T07:58:00.718Z,98.92
2023-02-28T07:59:00.825Z,98.96
2023-02-28T08:00:00.802Z,98.58
2023-02-28T08:01:00.985Z,98.96
2023-02-28T08:02:00.770Z,99.44
2023-02-28T08:03:00.628Z,98.92
2023-02-28T08:04:00.662Z,98.16
2023-02-28T08:05:00.742Z,97.69
2023-02-28T08:06:00.659Z,97.69
2023-02-28T08:07:00.633Z,97.02
2023-02-28T08:08:00.638Z,97.5
2023-02-28T08:09:00.650Z,97.5
2023-02-28T08:10:00.659Z,97.21
2023-02-28T08:11:00.714Z,97.4
2023-02-28T08:12:00.645Z,97.36
2023-02-28T08:13:00.764Z,96.69
2023-02-28T08:14:00.712Z,96.03
2023-02-28T08:15:00.720Z,95.27
2023-02-28T08:16:00.785Z,95.55
2023-02-28T08:17:00.663Z,95.74
2023-02-28T08:18:00.746Z,94.93
2023-02-28T08:19:00.655Z,94.56
2023-02-28T08:20:00.715Z,93.99
2023-02-28T08:21:00.699Z,94.08
2023-02-28T08:22:00.681Z,93.75
2023-02-28T08:23:00.802Z,94.23
2023-02-28T08:24:03.715Z,94.23
2023-02-28T08:25:00.695Z,93.75
2023-02-28T08:26:00.680Z,94.03
2023-02-28T08:27:00.671Z,93.8
2023-02-28T08:28:00.668Z,92.75
2023-02-28T08:29:03.361Z,92.56
2023-02-28T08:30:00.724Z,91.99
2023-02-28T08:31:00.714Z,92.18
2023-02-28T08:32:00.897Z,92.18
2023-02-28T08:33:00.805Z,91.89
2023-02-28T08:34:00.695Z,92.18
2023-02-28T08:35:03.550Z,92.37
2023-02-28T08:36:00.898Z,92.28
2023-02-28T08:37:00.730Z,92.18
2023-02-28T08:38:00.671Z,91.85
2023-02-28T08:39:00.712Z,91.8
2023-02-28T08:40:00.710Z,91.56
2023-02-28T08:41:00.719Z,90.9
2023-02-28T08:42:09.474Z,90.42
2023-02-28T08:43:00.699Z,89.67
2023-02-28T08:44:00.679Z,89.47
2023-02-28T08:45:00.699Z,89.67
2023-02-28T08:46:02.598Z,89.28
2023-02-28T08:47:00.725Z,89.38
2023-02-28T08:48:00.710Z,89.67
2023-02-28T08:49:00.684Z,89.76
2023-02-28T08:50:00.715Z,89.28
2023-02-28T08:51:09.445Z,88.67
2023-02-28T08:52:00.721Z,88.62
2023-02-28T08:53:00.713Z,88.38
2023-02-28T08:54:00.712Z,88.38
2023-02-28T08:55:00.697Z,88.76
2023-02-28T08:56:00.688Z,88
2023-02-28T08:57:02.424Z,87.81
2023-02-28T08:58:00.698Z,87.43
2023-02-28T08:59:00.699Z,86.95
2023-02-28T09:00:00.723Z,86.67
2023-02-28T09:01:00.779Z,86.47
2023-02-28T09:02:00.717Z,86.67
2023-02-28T09:03:00.736Z,86.8
2023-02-28T09:04:00.808Z,86.47
2023-02-28T09:05:00.711Z,87.28
2023-02-28T09:06:00.698Z,86.99
2023-02-28T09:07:00.758Z,86.67
2023-02-28T09:08:03.720Z,86.47
2023-02-28T09:09:00.706Z,86.47
2023-02-28T09:10:00.754Z,86.29
2023-02-28T09:11:02.419Z,85.91
2023-02-28T09:12:00.775Z,85.53
2023-02-28T09:13:00.729Z,85.53
2023-02-28T09:14:00.709Z,85.53
2023-02-28T09:15:00.742Z,85.34
2023-02-28T09:16:00.831Z,85.34
2023-02-28T09:17:01.925Z,85.34
2023-02-28T09:18:01.725Z,85.24
2023-02-28T09:19:04.917Z,85.24
2023-02-28T09:20:01.878Z,85.19
2023-02-28T09:21:01.724Z,85.57
2023-02-28T09:22:02.027Z,85.15
2023-02-28T09:23:00.782Z,85.43
2023-02-28T09:24:00.729Z,84.77
2023-02-28T09:25:00.753Z,84.86
2023-02-28T09:26:00.772Z,84.77
2023-02-28T09:27:08.181Z,85.81
2023-02-28T09:28:00.752Z,84.95
2023-02-28T09:29:00.752Z,85.24
2023-02-28T09:30:03.863Z,85.28
2023-02-28T09:31:00.996Z,85.28
2023-02-28T09:32:00.908Z,85.28
2023-02-28T09:33:00.768Z,85.19
2023-02-28T09:34:00.851Z,84.81
2023-02-28T09:35:00.763Z,84.85
2023-02-28T09:36:00.880Z,84.47
2023-02-28T09:37:00.969Z,83.81
2023-02-28T09:38:00.778Z,83.52
2023-02-28T09:39:03.924Z,83.39
2023-02-28T09:40:00.758Z,83.58
2023-02-28T09:41:03.861Z,83.58
2023-02-28T09:42:00.761Z,84.14
2023-02-28T09:43:00.783Z,84.05
2023-02-28T09:44:00.768Z,84.14
2023-02-28T09:45:00.788Z,83.71
2023-02-28T09:46:00.853Z,83.39
2023-02-28T09:47:00.773Z,83.42
2023-02-28T09:48:00.813Z,83.48
2023-02-28T09:49:00.762Z,83.42
2023-02-28T09:50:00.813Z,83.23
2023-02-28T09:51:00.805Z,83.23
2023-02-28T09:52:03.844Z,82.95
2023-02-28T09:53:00.795Z,82.8
2023-02-28T09:54:04.215Z,82.42
2023-02-28T09:55:00.806Z,82.62
2023-02-28T09:56:00.788Z,82.38
2023-02-28T09:57:00.805Z,82.38
2023-02-28T09:58:00.881Z,82.76
2023-02-28T09:59:00.802Z,82.76
2023-02-28T10:00:00.807Z,82.8
2023-02-28T10:01:00.897Z,82.51
2023-02-28T10:02:00.860Z,82.23
2023-02-28T10:03:00.834Z,82.08
2023-02-28T10:04:00.796Z,80.84
2023-02-28T10:05:01.013Z,80.46
2023-02-28T10:06:00.660Z,80.27
2023-02-28T10:07:00.829Z,80.36
2023-02-28T10:08:00.849Z,79.89
2023-02-28T10:09:00.840Z,79.6
2023-02-28T10:10:00.812Z,80.08
2023-02-28T10:11:00.843Z,78.69
2023-02-28T10:12:01.399Z,78.85
2023-02-28T10:13:00.830Z,78.56
2023-02-28T10:14:00.807Z,78.41
2023-02-28T10:15:00.815Z,77.74
2023-02-28T10:16:00.934Z,77.32
2023-02-28T10:17:00.819Z,77.61
2023-02-28T10:18:12.151Z,77.8
2023-02-28T10:19:00.827Z,77.89
2023-02-28T10:20:00.854Z,78.08
2023-02-28T10:21:00.862Z,78.04
2023-02-28T10:22:00.865Z,78.38
2023-02-28T10:23:00.891Z,78.67
2023-02-28T10:24:00.820Z,78.38
2023-02-28T10:25:01.928Z,78.77
2023-02-28T10:26:00.850Z,79.14
2023-02-28T10:27:00.870Z,80.04
2023-02-28T10:28:00.857Z,80.04
2023-02-28T10:29:00.842Z,79.39
2023-02-28T10:30:00.853Z,79.81
2023-02-28T10:31:00.951Z,79.94
2023-02-28T10:32:00.888Z,79.38
2023-02-28T10:33:01.001Z,79.52
2023-02-28T10:34:00.857Z,79.38
2023-02-28T10:35:00.848Z,79.66
2023-02-28T10:36:00.932Z,80.1
2023-02-28T10:37:00.856Z,79.57
2023-02-28T10:38:00.891Z,79.52
2023-02-28T10:39:00.907Z,79.19
2023-02-28T10:40:00.871Z,79.57
2023-02-28T10:41:00.873Z,79.38
2023-02-28T10:42:00.896Z,79.32
2023-02-28T10:43:00.894Z,78.9
2023-02-28T10:44:00.864Z,79.43
2023-02-28T10:45:00.875Z,79.38
2023-02-28T10:46:00.961Z,78.94
2023-02-28T10:47:00.877Z,79.09
2023-02-28T10:48:00.901Z,78.9
2023-02-28T10:49:00.869Z,77.98
2023-02-28T10:50:00.868Z,77.76
2023-02-28T10:51:00.923Z,78.9
2023-02-28T10:52:00.883Z,78.8
2023-02-28T10:53:00.890Z,78.37
2023-02-28T10:54:05.038Z,77.42
2023-02-28T10:55:00.893Z,77.03
2023-02-28T10:56:00.887Z,76.94
2023-02-28T10:57:00.888Z,77.22
2023-02-28T10:58:00.973Z,77.13
2023-02-28T10:59:00.912Z,77.47
2023-02-28T11:00:00.895Z,77.95
2023-02-28T11:01:00.886Z,77.91
2023-02-28T11:02:03.805Z,79.05
2023-02-28T11:03:00.920Z,78.61
2023-02-28T11:04:00.890Z,78.61
2023-02-28T11:05:00.968Z,78.57
2023-02-28T11:06:00.883Z,79.05
2023-02-28T11:07:00.903Z,79.28
2023-02-28T11:08:00.957Z,79.14
2023-02-28T11:09:00.896Z,79.05
2023-02-28T11:10:00.904Z,79.58
2023-02-28T11:11:00.951Z,79.96
2023-02-28T11:12:00.899Z,80
2023-02-28T11:13:04.441Z,80.19
2023-02-28T11:14:00.900Z,79.57
2023-02-28T11:15:00.967Z,78.99
2023-02-28T11:16:01.071Z,79.09
2023-02-28T11:17:00.900Z,78.9
2023-02-28T11:18:00.982Z,78.52
2023-02-28T11:19:00.928Z,77.85
2023-02-28T11:20:00.981Z,77.85
2023-02-28T11:21:00.913Z,77.95
2023-02-28T11:22:00.930Z,78.04
2023-02-28T11:23:00.989Z,77.85
2023-02-28T11:24:03.841Z,77.09
2023-02-28T11:25:00.932Z,76.84
2023-02-28T11:26:00.942Z,76.84
2023-02-28T11:27:00.972Z,77
2023-02-28T11:28:00.953Z,77.7
2023-02-28T11:29:00.943Z,77.61
2023-02-28T11:30:00.931Z,76.75
2023-02-28T11:31:01.017Z,76.94
2023-02-28T11:32:01.077Z,76.42
2023-02-28T11:33:01.103Z,77.28
2023-02-28T11:34:00.939Z,76.84
2023-02-28T11:35:03.989Z,76.75
2023-02-28T11:36:01.005Z,76.84
2023-02-28T11:37:00.964Z,76.46
2023-02-28T11:38:00.974Z,75.99
2023-02-28T11:39:00.933Z,75.79
2023-02-28T11:40:00.953Z,76.61
2023-02-28T11:41:00.942Z,76.23
2023-02-28T11:42:00.966Z,76.46
2023-02-28T11:43:00.983Z,76.18
2023-02-28T11:44:00.965Z,76.46
2023-02-28T11:45:00.968Z,76.37
2023-02-28T11:46:03.773Z,76.46
2023-02-28T11:47:00.970Z,76.27
2023-02-28T11:48:00.982Z,75.89
2023-02-28T11:49:00.958Z,75.64
2023-02-28T11:50:00.960Z,75.74
2023-02-28T11:51:00.965Z,75.45
2023-02-28T11:52:01.001Z,75.32
2023-02-28T11:53:00.994Z,76.14
2023-02-28T11:54:00.958Z,76.75
2023-02-28T11:55:00.976Z,76.75
2023-02-28T11:56:01.007Z,76.37
2023-02-28T11:57:04.261Z,76.94
2023-02-28T11:58:01.001Z,77.13
2023-02-28T11:59:01.033Z,76.5
2023-02-28T12:00:00.977Z,76.18
2023-02-28T12:01:00.998Z,76.12
2023-02-28T12:02:01.044Z,75.55
2023-02-28T12:03:01.081Z,75.45
2023-02-28T12:04:00.994Z,74.94
2023-02-28T12:05:00.990Z,75.16
2023-02-28T12:06:01.001Z,75.07
2023-02-28T12:07:01.007Z,75.6
2023-02-28T12:08:03.823Z,75.23
2023-02-28T12:09:00.988Z,75.55
2023-02-28T12:10:01.010Z,75.89
2023-02-28T12:11:01.031Z,75.79
2023-02-28T12:12:01.014Z,75.79
2023-02-28T12:13:01.040Z,75.51
2023-02-28T12:14:01.021Z,75.79
2023-02-28T12:15:01.038Z,75.99
2023-02-28T12:16:01.102Z,75.7
2023-02-28T12:17:01.020Z,75.89
2023-02-28T12:18:01.055Z,75.79
2023-02-28T12:19:04.041Z,76.23
2023-02-28T12:20:01.013Z,76.33
2023-02-28T12:21:01.046Z,76.81
2023-02-28T12:22:01.012Z,76.81
2023-02-28T12:23:01.064Z,76.56
2023-02-28T12:24:01.021Z,76.65
2023-02-28T12:25:03.788Z,76.37
2023-02-28T12:26:01.045Z,76.18
2023-02-28T12:27:01.043Z,76.61
2023-02-28T12:28:01.063Z,76.61
2023-02-28T12:29:01.036Z,76.81
2023-02-28T12:30:03.824Z,77.03
2023-02-28T12:31:01.094Z,76.52
2023-02-28T12:32:01.228Z,76.9
2023-02-28T12:33:01.088Z,77.47
2023-02-28T12:34:01.139Z,77.76
2023-02-28T12:35:01.069Z,77.7
2023-02-28T12:36:01.131Z,77.47
2023-02-28T12:37:01.063Z,77.56
2023-02-28T12:38:01.078Z,77.85
2023-02-28T12:39:01.102Z,77.42
2023-02-28T12:40:01.055Z,77.32
2023-02-28T12:41:01.075Z,76.84
2023-02-28T12:42:01.092Z,76.61
2023-02-28T12:43:01.075Z,76.61
2023-02-28T12:44:01.088Z,77.19
2023-02-28T12:45:01.091Z,77.28
2023-02-28T12:46:04.171Z,77.19
2023-02-28T12:47:01.070Z,77.28
2023-02-28T12:48:01.134Z,77.32
2023-02-28T12:49:01.109Z,77.03
2023-02-28T12:50:01.098Z,76.94
2023-02-28T12:51:02.979Z,77.42
2023-02-28T12:52:01.073Z,77.03
2023-02-28T12:53:01.160Z,76.75
2023-02-28T12:54:01.083Z,75.89